createdAt,value
2022-08-02T00:00:55.727Z,96617.28
2022-08-02T00:01:57.709Z,96615.66
2022-08-02T00:02:59.356Z,96617.56
2022-08-02T00:04:01.065Z,96614.00
2022-08-02T00:05:02.972Z,96623.28
2022-08-02T00:06:04.685Z,96616.28
2022-08-02T00:07:06.288Z,96622.56
2022-08-02T00:08:07.864Z,96619.78
2022-08-02T00:09:09.505Z,96617.06
2022-08-02T00:10:12.914Z,96624.88
2022-08-02T00:11:14.612Z,96629.53
2022-08-02T00:12:16.556Z,96622.91
2022-08-02T00:13:18.151Z,96622.53
2022-08-02T00:14:19.819Z,96621.69
2022-08-02T00:15:21.499Z,96620.91
2022-08-02T00:16:37.260Z,96621.25
2022-08-02T00:17:40.100Z,96617.81
2022-08-02T00:18:41.730Z,96615.47
2022-08-02T00:19:43.910Z,96614.69
2022-08-02T00:20:45.500Z,96620.09
2022-08-02T00:21:47.179Z,96624.75
2022-08-02T00:22:48.770Z,96623.91
2022-08-02T00:24:27.764Z,96623.13
2022-08-02T00:25:12.061Z,96619.22
2022-08-02T00:26:13.716Z,96620.41
2022-08-02T00:27:15.312Z,96623.13
2022-08-02T00:28:20.591Z,96626.22
2022-08-02T00:29:32.355Z,96623.06
2022-08-02T00:30:34.383Z,96627.69
2022-08-02T00:31:36.060Z,96623.78
2022-08-02T00:32:37.670Z,96622.28
2022-08-02T00:34:27.462Z,96628.50
2022-08-02T00:35:01.752Z,96628.91
2022-08-02T00:36:03.888Z,96626.91
2022-08-02T00:37:05.503Z,96627.63
2022-08-02T00:38:07.170Z,96626.78
2022-08-02T00:39:34.415Z,96635.72
2022-08-02T00:40:30.766Z,96630.63
2022-08-02T00:41:32.423Z,96630.63
2022-08-02T00:42:34.015Z,96631.44
2022-08-02T00:43:35.629Z,96627.56
2022-08-02T00:44:37.244Z,96626.44
2022-08-02T00:46:02.037Z,96622.53
2022-08-02T00:47:02.195Z,96622.53
2022-08-02T00:48:05.351Z,96619.81
2022-08-02T00:49:07.034Z,96621.34
2022-08-02T00:50:09.130Z,96630.72
2022-08-02T00:51:11.927Z,96627.63
2022-08-02T00:52:13.874Z,96630.41
2022-08-02T00:53:15.652Z,96622.66
2022-08-02T00:54:17.231Z,96623.88
2022-08-02T00:55:19.010Z,96623.91
2022-08-02T00:56:32.824Z,96625.19
2022-08-02T00:57:34.462Z,96627.63
2022-08-02T00:58:36.227Z,96629.78
2022-08-02T00:59:37.935Z,96630.03
2022-08-02T01:00:39.556Z,96628.59
2022-08-02T01:01:57.136Z,96626.41
2022-08-02T01:02:59.686Z,96631.16
2022-08-02T01:04:01.297Z,96636.75
2022-08-02T01:05:03.782Z,96622.00
2022-08-02T01:06:13.408Z,96627.47
2022-08-02T01:07:15.835Z,96632.94
2022-08-02T01:08:17.702Z,96633.69
2022-08-02T01:09:19.567Z,96625.13
2022-08-02T01:10:21.254Z,96626.28
2022-08-02T01:11:22.827Z,96628.22
2022-08-02T01:12:24.394Z,96623.56
2022-08-02T01:13:27.608Z,96626.25
2022-08-02T01:14:29.762Z,96621.91
2022-08-02T01:15:35.582Z,96635.84
2022-08-02T01:16:54.093Z,96628.78
2022-08-02T01:18:28.519Z,96632.63
2022-08-02T01:19:30.036Z,96630.28
2022-08-02T01:20:53.519Z,96623.25
2022-08-02T01:22:15.079Z,96631.00
2022-08-02T01:23:52.723Z,96629.75
2022-08-02T01:25:13.256Z,96622.31
2022-08-02T01:26:14.769Z,96623.06
2022-08-02T01:28:07.425Z,96620.75
2022-08-02T01:29:17.082Z,96627.00
2022-08-02T01:30:19.742Z,96621.13
2022-08-02T01:31:33.272Z,96622.66
2022-08-02T01:32:41.596Z,96622.28
2022-08-02T01:33:49.872Z,96618.41
2022-08-02T01:34:56.421Z,96625.78
2022-08-02T01:36:00.220Z,96623.78
2022-08-02T01:37:17.003Z,96619.00
2022-08-02T01:38:28.003Z,96618.22
2022-08-02T01:39:33.591Z,96618.63
2022-08-02T01:40:38.642Z,96615.84
2022-08-02T01:41:42.494Z,96618.97
2022-08-02T01:42:48.515Z,96612.00
2022-08-02T01:43:55.886Z,96615.84
2022-08-02T01:44:59.463Z,96622.84
2022-08-02T01:46:01.593Z,96620.50
2022-08-02T01:47:08.059Z,96616.97
2022-08-02T01:48:11.471Z,96619.69
2022-08-02T01:49:17.871Z,96615.81
2022-08-02T01:50:25.876Z,96614.25
2022-08-02T01:51:47.338Z,96621.25
2022-08-02T01:52:53.237Z,96615.03
2022-08-02T01:53:55.966Z,96617.75
2022-08-02T01:55:18.786Z,96619.31
2022-08-02T01:56:22.025Z,96615.13
2022-08-02T01:57:26.138Z,96610.09
2022-08-02T01:58:31.554Z,96607.41
2022-08-02T01:59:35.298Z,96614.00
2022-08-02T02:00:40.129Z,96605.88
2022-08-02T02:01:43.012Z,96608.63
2022-08-02T02:02:47.754Z,96602.84
2022-08-02T02:03:49.890Z,96605.94
2022-08-02T02:04:53.010Z,96604.78
2022-08-02T02:05:58.624Z,96605.22
2022-08-02T02:07:01.640Z,96615.28
2022-08-02T02:08:07.243Z,96609.47
2022-08-02T02:09:09.801Z,96619.19
2022-08-02T02:10:15.629Z,96611.41
2022-08-02T02:12:09.399Z,96607.94
2022-08-02T02:12:40.662Z,96599.75
2022-08-02T02:13:42.877Z,96611.78
2022-08-02T02:14:49.164Z,96607.50
2022-08-02T02:15:55.493Z,96611.38
2022-08-02T02:16:59.320Z,96604.00
2022-08-02T02:18:12.697Z,96609.03
2022-08-02T02:19:20.864Z,96614.13
2022-08-02T02:20:23.961Z,96607.50
2022-08-02T02:21:25.674Z,96607.84
2022-08-02T02:22:27.347Z,96613.69
2022-08-02T02:23:30.165Z,96604.34
2022-08-02T02:24:37.222Z,96617.97
2022-08-02T02:25:41.722Z,96620.72
2022-08-02T02:26:52.265Z,96620.72
2022-08-02T02:28:13.074Z,96614.47
2022-08-02T02:29:16.458Z,96619.13
2022-08-02T02:30:18.358Z,96610.56
2022-08-02T02:31:21.649Z,96619.91
2022-08-02T02:32:25.010Z,96616.84
2022-08-02T02:33:29.581Z,96617.25
2022-08-02T02:34:37.835Z,96616.50
2022-08-02T02:35:42.256Z,96614.19
2022-08-02T02:36:50.879Z,96613.06
2022-08-02T02:37:54.936Z,96610.91
2022-08-02T02:39:03.661Z,96614.78
2022-08-02T02:40:06.888Z,96611.75
2022-08-02T02:41:09.768Z,96615.66
2022-08-02T02:42:15.511Z,96621.59
2022-08-02T02:43:17.616Z,96618.56
2022-08-02T02:44:21.575Z,96621.34
2022-08-02T02:45:24.226Z,96622.19
2022-08-02T02:46:27.293Z,96618.25
2022-08-02T02:47:40.509Z,96614.75
2022-08-02T02:48:43.926Z,96623.59
2022-08-02T02:49:48.181Z,96619.66
2022-08-02T02:50:51.014Z,96619.25
2022-08-02T02:51:53.948Z,96620.38
2022-08-02T02:52:56.834Z,96616.50
2022-08-02T02:54:32.280Z,96617.25
2022-08-02T02:55:22.933Z,96624.19
2022-08-02T02:56:24.983Z,96624.53
2022-08-02T02:57:26.826Z,96628.75
2022-08-02T02:58:29.099Z,96626.03
2022-08-02T02:59:32.583Z,96626.44
2022-08-02T03:00:52.850Z,96627.97
2022-08-02T03:01:57.646Z,96622.16
2022-08-02T03:02:59.797Z,96625.66
2022-08-02T03:04:04.357Z,96619.53
2022-08-02T03:05:10.791Z,96624.19
2022-08-02T03:06:15.072Z,96623.41
2022-08-02T03:07:17.952Z,96629.22
2022-08-02T03:08:19.602Z,96633.13
2022-08-02T03:09:21.327Z,96629.22
2022-08-02T03:10:22.919Z,96631.94
2022-08-02T03:11:29.807Z,96631.16
2022-08-02T03:12:32.594Z,96631.94
2022-08-02T03:13:37.482Z,96629.94
2022-08-02T03:14:43.479Z,96629.53
2022-08-02T03:15:46.844Z,96632.25
2022-08-02T03:16:50.921Z,96629.53
2022-08-02T03:17:52.555Z,96630.31
2022-08-02T03:18:55.877Z,96635.78
2022-08-02T03:19:57.497Z,96629.69
2022-08-02T03:21:19.295Z,96632.06
2022-08-02T03:22:20.939Z,96631.34
2022-08-02T03:23:22.550Z,96628.66
2022-08-02T03:24:27.606Z,96631.38
2022-08-02T03:25:30.159Z,96635.28
2022-08-02T03:26:32.003Z,96632.59
2022-08-02T03:27:33.637Z,96635.31
2022-08-02T03:28:35.324Z,96634.56
2022-08-02T03:29:36.959Z,96637.25
2022-08-02T03:30:38.526Z,96634.97
2022-08-02T03:31:42.813Z,96629.53
2022-08-02T03:32:47.377Z,96636.88
2022-08-02T03:33:49.538Z,96634.56
2022-08-02T03:34:51.198Z,96630.28
2022-08-02T03:35:55.382Z,96633.81
2022-08-02T03:36:58.216Z,96635.00
2022-08-02T03:38:00.402Z,96636.94
2022-08-02T03:39:04.302Z,96632.63
2022-08-02T03:40:08.231Z,96623.72
2022-08-02T03:41:12.826Z,96634.19
2022-08-02T03:42:16.178Z,96628.38
2022-08-02T03:43:18.049Z,96630.72
2022-08-02T03:44:19.992Z,96634.59
2022-08-02T03:45:22.404Z,96637.31
2022-08-02T03:46:26.582Z,96637.66
2022-08-02T03:47:28.979Z,96640.41
2022-08-02T03:48:34.802Z,96639.63
2022-08-02T03:49:37.783Z,96638.84
2022-08-02T03:50:41.035Z,96640.78
2022-08-02T03:51:42.932Z,96639.19
2022-08-02T03:52:47.626Z,96641.13
2022-08-02T03:53:49.365Z,96646.94
2022-08-02T03:54:51.185Z,96641.91
2022-08-02T03:55:55.836Z,96637.63
2022-08-02T03:56:57.947Z,96643.84
2022-08-02T03:57:59.706Z,96640.75
2022-08-02T03:59:09.473Z,96642.31
2022-08-02T04:00:18.009Z,96644.25
2022-08-02T04:01:19.678Z,96649.25
2022-08-02T04:02:21.332Z,96643.44
2022-08-02T04:03:23.080Z,96645.31
2022-08-02T04:04:24.709Z,96643.75
2022-08-02T04:05:26.458Z,96648.75
2022-08-02T04:06:28.480Z,96651.44
2022-08-02T04:08:03.486Z,96648.66
2022-08-02T04:08:53.038Z,96652.09
2022-08-02T04:09:54.611Z,96652.88
2022-08-02T04:11:14.603Z,96652.09
2022-08-02T04:12:16.171Z,96654.38
2022-08-02T04:13:17.833Z,96651.97
2022-08-02T04:14:23.094Z,96651.94
2022-08-02T04:15:25.015Z,96655.03
2022-08-02T04:16:38.910Z,96662.41
2022-08-02T04:17:45.997Z,96651.88
2022-08-02T04:18:55.278Z,96652.25
2022-08-02T04:20:04.146Z,96659.56
2022-08-02T04:21:09.502Z,96654.81
2022-08-02T04:22:16.519Z,96651.97
2022-08-02T04:23:18.640Z,96654.56
2022-08-02T04:24:27.985Z,96659.94
2022-08-02T04:25:40.258Z,96652.91
2022-08-02T04:26:44.162Z,96654.03
2022-08-02T04:28:17.310Z,96653.63
2022-08-02T04:29:14.159Z,96659.00
2022-08-02T04:30:17.595Z,96655.91
2022-08-02T04:31:19.885Z,96658.22
2022-08-02T04:32:22.549Z,96656.78
2022-08-02T04:33:25.004Z,96656.06
2022-08-02T04:34:26.781Z,96661.50
2022-08-02T04:35:28.636Z,96657.97
2022-08-02T04:36:31.022Z,96666.84
2022-08-02T04:37:34.680Z,96664.44
2022-08-02T04:38:36.902Z,96657.41
2022-08-02T04:39:38.688Z,96660.53
2022-08-02T04:40:40.346Z,96662.69
2022-08-02T04:41:44.536Z,96664.19
2022-08-02T04:42:46.221Z,96661.75
2022-08-02T04:43:47.876Z,96666.31
2022-08-02T04:44:50.552Z,96666.22
2022-08-02T04:45:55.090Z,96662.22
2022-08-02T04:46:58.199Z,96658.22
2022-08-02T04:48:04.804Z,96664.72
2022-08-02T04:49:07.344Z,96663.84
2022-08-02T04:50:09.543Z,96660.13
2022-08-02T04:51:11.121Z,96654.47
2022-08-02T04:52:13.647Z,96659.72
2022-08-02T04:53:15.706Z,96663.41
2022-08-02T04:54:17.329Z,96662.84
2022-08-02T04:55:18.927Z,96660.00
2022-08-02T04:56:21.307Z,96655.50
2022-08-02T04:57:52.928Z,96652.09
2022-08-02T04:58:54.847Z,96655.22
2022-08-02T04:59:57.060Z,96652.84
2022-08-02T05:00:58.705Z,96657.34
2022-08-02T05:02:00.293Z,96658.88
2022-08-02T05:03:01.984Z,96650.91
2022-08-02T05:04:03.790Z,96658.50
2022-08-02T05:05:10.165Z,96654.59
2022-08-02T05:06:19.508Z,96654.94
2022-08-02T05:07:21.353Z,96659.69
2022-08-02T05:08:22.910Z,96657.16
2022-08-02T05:09:24.467Z,96663.59
2022-08-02T05:10:26.081Z,96663.03
2022-08-02T05:11:36.295Z,96666.44
2022-08-02T05:12:40.215Z,96666.53
2022-08-02T05:13:58.092Z,96670.88
2022-08-02T05:15:01.117Z,96668.16
2022-08-02T05:16:04.628Z,96668.50
2022-08-02T05:17:06.812Z,96668.50
2022-08-02T05:18:08.574Z,96663.53
2022-08-02T05:19:10.212Z,96665.78
2022-08-02T05:20:15.482Z,96661.13
2022-08-02T05:21:17.123Z,96661.97
2022-08-02T05:22:18.736Z,96663.09
2022-08-02T05:23:20.569Z,96659.09
2022-08-02T05:24:22.179Z,96663.19
2022-08-02T05:25:23.742Z,96663.88
2022-08-02T05:26:25.544Z,96664.88
2022-08-02T05:27:27.235Z,96659.66
2022-08-02T05:28:28.972Z,96661.78
2022-08-02T05:29:31.626Z,96655.91
2022-08-02T05:30:33.238Z,96663.63
2022-08-02T05:31:34.855Z,96664.50
2022-08-02T05:32:46.793Z,96665.25
2022-08-02T05:33:48.521Z,96665.84
2022-08-02T05:34:50.167Z,96670.00
2022-08-02T05:35:51.871Z,96670.16
2022-08-02T05:36:53.478Z,96674.59
2022-08-02T05:37:55.237Z,96676.22
2022-08-02T05:39:04.628Z,96679.59
2022-08-02T05:40:12.706Z,96675.84
2022-08-02T05:41:14.962Z,96676.47
2022-08-02T05:42:16.662Z,96679.97
2022-08-02T05:43:18.293Z,96676.22
2022-08-02T05:44:22.539Z,96673.31
2022-08-02T05:45:24.258Z,96677.25
2022-08-02T05:46:26.258Z,96679.50
2022-08-02T05:47:28.636Z,96677.94
2022-08-02T05:48:32.396Z,96679.97
2022-08-02T05:49:34.408Z,96682.06
2022-08-02T05:50:39.880Z,96675.44
2022-08-02T05:52:09.607Z,96678.44
2022-08-02T05:53:18.608Z,96684.25
2022-08-02T05:54:27.655Z,96670.78
2022-08-02T05:55:35.290Z,96680.03
2022-08-02T05:56:50.566Z,96679.19
2022-08-02T05:58:01.448Z,96678.06
2022-08-02T05:59:18.754Z,96682.03
2022-08-02T06:00:21.689Z,96674.94
2022-08-02T06:01:44.990Z,96673.69
2022-08-02T06:03:05.510Z,96679.72
2022-08-02T06:04:09.836Z,96677.69
2022-08-02T06:05:11.588Z,96679.59
2022-08-02T06:06:16.166Z,96680.00
2022-08-02T06:07:19.729Z,96688.50
2022-08-02T06:08:25.640Z,96681.44
2022-08-02T06:09:28.364Z,96679.34
2022-08-02T06:10:31.284Z,96680.66
2022-08-02T06:12:02.408Z,96681.69
2022-08-02T06:13:14.559Z,96681.44
2022-08-02T06:14:16.860Z,96682.31
2022-08-02T06:15:20.329Z,96678.97
2022-08-02T06:16:32.458Z,96677.91
2022-08-02T06:17:34.920Z,96681.25
2022-08-02T06:18:44.153Z,96677.69
2022-08-02T06:19:52.494Z,96680.44
2022-08-02T06:20:57.360Z,96677.97
2022-08-02T06:22:32.695Z,96678.09
2022-08-02T06:23:42.686Z,96678.59
2022-08-02T06:25:02.557Z,96663.47
2022-08-02T06:26:07.072Z,96666.75
2022-08-02T06:27:09.102Z,96665.41
2022-08-02T06:28:11.812Z,96670.75
2022-08-02T06:29:14.878Z,96673.78
2022-08-02T06:30:16.784Z,96671.09
2022-08-02T06:31:19.293Z,96669.69
2022-08-02T06:32:21.445Z,96666.09
2022-08-02T06:33:24.366Z,96671.78
2022-08-02T06:34:25.926Z,96670.38
2022-08-02T06:36:01.151Z,96672.41
2022-08-02T06:37:15.325Z,96667.72
2022-08-02T06:38:24.283Z,96671.75
2022-08-02T06:39:39.174Z,96667.34
2022-08-02T06:40:43.767Z,96668.56
2022-08-02T06:41:49.415Z,96662.88
2022-08-02T06:42:59.908Z,96669.22
2022-08-02T06:44:26.183Z,96667.53
2022-08-02T06:45:24.956Z,96662.38
2022-08-02T06:46:38.035Z,96660.22
2022-08-02T06:47:48.976Z,96656.16
2022-08-02T06:48:50.805Z,96661.97
2022-08-02T06:49:54.235Z,96657.56
2022-08-02T06:50:56.516Z,96646.78
2022-08-02T06:51:58.210Z,96651.81
2022-08-02T06:53:00.584Z,96655.28
2022-08-02T06:54:02.306Z,96653.56
2022-08-02T06:55:05.674Z,96648.63
2022-08-02T06:56:07.363Z,96653.63
2022-08-02T06:57:10.768Z,96656.06
2022-08-02T06:58:14.090Z,96656.41
2022-08-02T06:59:15.812Z,96650.81
2022-08-02T07:00:17.465Z,96644.41
2022-08-02T07:01:19.941Z,96653.66
2022-08-02T07:02:21.647Z,96651.56
2022-08-02T07:03:25.514Z,96652.78
2022-08-02T07:04:27.104Z,96649.13
2022-08-02T07:05:28.737Z,96656.03
2022-08-02T07:06:31.304Z,96649.72
2022-08-02T07:07:33.429Z,96657.84
2022-08-02T07:08:38.448Z,96648.72
2022-08-02T07:10:00.887Z,96645.56
2022-08-02T07:11:06.324Z,96648.19
2022-08-02T07:12:08.184Z,96649.19
2022-08-02T07:13:10.623Z,96647.84
2022-08-02T07:14:12.301Z,96646.94
2022-08-02T07:15:13.919Z,96643.16
2022-08-02T07:16:15.704Z,96647.25
2022-08-02T07:17:17.288Z,96649.06
2022-08-02T07:18:18.964Z,96644.66
2022-08-02T07:19:20.635Z,96649.31
2022-08-02T07:20:23.270Z,96647.94
2022-08-02T07:21:56.352Z,96644.50
2022-08-02T07:22:46.480Z,96644.88
2022-08-02T07:23:48.089Z,96641.97
2022-08-02T07:24:50.257Z,96647.50
2022-08-02T07:26:02.642Z,96639.59
2022-08-02T07:27:11.556Z,96635.25
2022-08-02T07:28:24.091Z,96637.44
2022-08-02T07:29:26.874Z,96635.09
2022-08-02T07:30:34.371Z,96632.22
2022-08-02T07:31:36.263Z,96627.94
2022-08-02T07:32:38.082Z,96629.94
2022-08-02T07:33:42.357Z,96631.44
2022-08-02T07:34:52.876Z,96626.81
2022-08-02T07:35:57.424Z,96622.31
2022-08-02T07:36:59.057Z,96624.84
2022-08-02T07:38:02.984Z,96621.94
2022-08-02T07:39:06.190Z,96621.19
2022-08-02T07:40:14.067Z,96619.97
2022-08-02T07:41:17.079Z,96619.84
2022-08-02T07:42:18.743Z,96620.16
2022-08-02T07:43:20.370Z,96621.66
2022-08-02T07:44:22.180Z,96620.28
2022-08-02T07:45:27.699Z,96618.41
2022-08-02T07:46:29.358Z,96613.81
2022-08-02T07:47:31.346Z,96618.84
2022-08-02T07:48:33.582Z,96610.97
2022-08-02T07:49:35.319Z,96610.66
2022-08-02T07:50:37.007Z,96616.72
2022-08-02T07:51:38.597Z,96614.00
2022-08-02T07:52:44.815Z,96611.31
2022-08-02T07:53:51.200Z,96611.00
2022-08-02T07:55:05.381Z,96611.69
2022-08-02T07:56:07.006Z,96604.13
2022-08-02T07:57:08.639Z,96606.69
2022-08-02T07:58:12.284Z,96606.81
2022-08-02T07:59:15.031Z,96605.00
2022-08-02T08:00:17.612Z,96600.84
2022-08-02T08:01:19.608Z,96599.63
2022-08-02T08:02:21.357Z,96598.38
2022-08-02T08:03:23.037Z,96596.69
2022-08-02T08:04:24.668Z,96595.47
2022-08-02T08:05:26.221Z,96595.41
2022-08-02T08:06:29.046Z,96595.75
2022-08-02T08:07:30.936Z,96599.28
2022-08-02T08:08:35.105Z,96604.31
2022-08-02T08:09:42.353Z,96590.06
2022-08-02T08:10:44.116Z,96595.09
2022-08-02T08:11:45.817Z,96593.44
2022-08-02T08:12:47.400Z,96591.38
2022-08-02T08:13:49.067Z,96594.34
2022-08-02T08:14:50.748Z,96584.31
2022-08-02T08:15:52.783Z,96582.88
2022-08-02T08:16:54.849Z,96578.69
2022-08-02T08:17:56.710Z,96572.59
2022-08-02T08:18:58.460Z,96573.25
2022-08-02T08:20:01.707Z,96575.06
2022-08-02T08:21:04.338Z,96581.81
2022-08-02T08:22:06.128Z,96578.13
2022-08-02T08:23:07.776Z,96574.75
2022-08-02T08:24:09.411Z,96576.41
2022-08-02T08:25:11.096Z,96572.25
2022-08-02T08:26:15.767Z,96572.22
2022-08-02T08:27:18.511Z,96575.91
2022-08-02T08:28:20.283Z,96572.81
2022-08-02T08:29:22.363Z,96566.81
2022-08-02T08:30:24.079Z,96565.34
2022-08-02T08:31:25.635Z,96567.81
2022-08-02T08:32:27.646Z,96561.16
2022-08-02T08:33:29.298Z,96563.53
2022-08-02T08:34:31.447Z,96562.53
2022-08-02T08:35:33.259Z,96563.75
2022-08-02T08:36:34.834Z,96565.34
2022-08-02T08:37:36.894Z,96564.88
2022-08-02T08:38:38.520Z,96564.09
2022-08-02T08:39:53.618Z,96561.16
2022-08-02T08:41:00.385Z,96556.94
2022-08-02T08:42:02.638Z,96558.47
2022-08-02T08:43:04.954Z,96567.69
2022-08-02T08:44:08.499Z,96559.09
2022-08-02T08:45:10.633Z,96562.78
2022-08-02T08:46:21.060Z,96550.53
2022-08-02T08:47:24.085Z,96554.00
2022-08-02T08:48:30.336Z,96557.34
2022-08-02T08:49:37.169Z,96555.22
2022-08-02T08:51:01.022Z,96555.38
2022-08-02T08:52:06.729Z,96553.97
2022-08-02T08:53:12.227Z,96562.59
2022-08-02T08:54:17.314Z,96561.97
2022-08-02T08:55:23.199Z,96555.84
2022-08-02T08:56:33.352Z,96553.38
2022-08-02T08:57:39.991Z,96544.94
2022-08-02T08:58:42.700Z,96554.28
2022-08-02T08:59:46.376Z,96557.81
2022-08-02T09:00:48.056Z,96554.75
2022-08-02T09:01:53.237Z,96551.22
2022-08-02T09:02:55.104Z,96545.84
2022-08-02T09:03:57.413Z,96547.81
2022-08-02T09:04:59.052Z,96548.88
2022-08-02T09:06:01.018Z,96545.34
2022-08-02T09:07:02.815Z,96556.72
2022-08-02T09:08:05.202Z,96547.81
2022-08-02T09:09:06.985Z,96547.69
2022-08-02T09:10:33.680Z,96545.03
2022-08-02T09:11:35.274Z,96549.31
2022-08-02T09:12:36.869Z,96546.28
2022-08-02T09:13:46.077Z,96540.16
2022-08-02T09:14:50.280Z,96545.38
2022-08-02T09:15:57.502Z,96542.63
2022-08-02T09:17:12.199Z,96547.09
2022-08-02T09:18:13.935Z,96540.00
2022-08-02T09:19:24.243Z,96546.00
2022-08-02T09:20:30.433Z,96547.72
2022-08-02T09:21:37.134Z,96542.47
2022-08-02T09:22:38.773Z,96544.34
2022-08-02T09:23:46.385Z,96551.38
2022-08-02T09:24:50.060Z,96542.94
2022-08-02T09:26:07.391Z,96544.47
2022-08-02T09:27:17.609Z,96537.41
2022-08-02T09:28:19.237Z,96536.19
2022-08-02T09:29:24.965Z,96541.56
2022-08-02T09:30:27.041Z,96542.00
2022-08-02T09:31:28.712Z,96545.41
2022-08-02T09:32:43.953Z,96543.25
2022-08-02T09:33:57.725Z,96550.75
2022-08-02T09:34:59.307Z,96536.75
2022-08-02T09:36:06.314Z,96533.78
2022-08-02T09:37:22.909Z,96539.47
2022-08-02T09:38:25.963Z,96532.13
2022-08-02T09:39:44.996Z,96533.09
2022-08-02T09:40:49.237Z,96529.13
2022-08-02T09:41:50.878Z,96535.25
2022-08-02T09:43:01.327Z,96531.84
2022-08-02T09:44:07.107Z,96531.44
2022-08-02T09:45:09.534Z,96534.81
2022-08-02T09:46:24.458Z,96523.00
2022-08-02T09:47:28.272Z,96525.44
2022-08-02T09:48:32.740Z,96529.00
2022-08-02T09:49:34.401Z,96529.13
2022-08-02T09:50:41.913Z,96526.06
2022-08-02T09:51:49.659Z,96533.13
2022-08-02T09:52:51.328Z,96522.84
2022-08-02T09:54:08.592Z,96531.41
2022-08-02T09:55:11.816Z,96525.75
2022-08-02T09:56:29.523Z,96529.13
2022-08-02T09:57:38.527Z,96514.69
2022-08-02T09:58:40.459Z,96520.81
2022-08-02T09:59:53.475Z,96514.38
2022-08-02T10:00:56.779Z,96520.06
2022-08-02T10:02:02.547Z,96509.78
2022-08-02T10:03:21.557Z,96514.22
2022-08-02T10:04:26.431Z,96512.06
2022-08-02T10:05:35.607Z,96512.53
2022-08-02T10:06:44.573Z,96512.53
2022-08-02T10:07:46.319Z,96504.56
2022-08-02T10:08:48.147Z,96502.41
2022-08-02T10:09:51.109Z,96509.59
2022-08-02T10:11:00.591Z,96509.44
2022-08-02T10:12:08.869Z,96512.50
2022-08-02T10:13:11.622Z,96504.81
2022-08-02T10:14:13.633Z,96498.38
2022-08-02T10:15:17.567Z,96503.59
2022-08-02T10:16:23.470Z,96510.69
2022-08-02T10:17:25.369Z,96505.13
2022-08-02T10:18:39.498Z,96492.25
2022-08-02T10:20:02.467Z,96499.81
2022-08-02T10:21:10.738Z,96497.50
2022-08-02T10:22:15.296Z,96503.31
2022-08-02T10:23:20.618Z,96493.72
2022-08-02T10:24:27.170Z,96486.47
2022-08-02T10:25:30.453Z,96493.16
2022-08-02T10:26:32.902Z,96493.03
2022-08-02T10:28:02.425Z,96496.13
2022-08-02T10:28:57.822Z,96494.31
2022-08-02T10:30:00.741Z,96498.56
2022-08-02T10:31:05.637Z,96496.09
2022-08-02T10:32:43.030Z,96483.81
2022-08-02T10:33:50.098Z,96481.84
2022-08-02T10:34:57.561Z,96492.88
2022-08-02T10:36:07.553Z,96484.13
2022-08-02T10:37:11.520Z,96488.34
2022-08-02T10:38:18.296Z,96476.28
2022-08-02T10:39:20.016Z,96486.38
2022-08-02T10:40:26.543Z,96478.34
2022-08-02T10:41:43.785Z,96471.94
2022-08-02T10:42:45.373Z,96478.78
2022-08-02T10:43:48.148Z,96487.84
2022-08-02T10:45:09.593Z,96482.41
2022-08-02T10:46:36.845Z,96486.44
2022-08-02T10:47:38.531Z,96482.41
2022-08-02T10:49:38.525Z,96478.06
2022-08-02T10:50:46.049Z,96471.03
2022-08-02T10:52:03.129Z,96475.13
2022-08-02T10:53:27.685Z,96476.28
2022-08-02T10:54:35.791Z,96473.81
2022-08-02T10:55:46.551Z,96470.41
2022-08-02T10:56:53.568Z,96469.63
2022-08-02T10:58:29.931Z,96466.44
2022-08-02T10:59:36.286Z,96460.34
2022-08-02T11:00:38.121Z,96475.72
2022-08-02T11:01:44.137Z,96461.88
2022-08-02T11:02:53.387Z,96460.63
2022-08-02T11:04:00.072Z,96461.00
2022-08-02T11:05:05.176Z,96460.03
2022-08-02T11:06:24.972Z,96460.63
2022-08-02T11:07:39.507Z,96465.53
2022-08-02T11:08:41.356Z,96456.25
2022-08-02T11:09:46.936Z,96460.81
2022-08-02T11:10:48.752Z,96461.25
2022-08-02T11:12:10.995Z,96462.03
2022-08-02T11:13:19.516Z,96436.03
2022-08-02T11:14:21.301Z,96462.47
2022-08-02T11:15:23.151Z,96451.16
2022-08-02T11:17:07.802Z,96436.28
2022-08-02T11:18:09.386Z,96454.44
2022-08-02T11:19:11.907Z,96456.41
2022-08-02T11:20:13.538Z,96451.63
2022-08-02T11:21:29.977Z,96448.00
2022-08-02T11:22:31.673Z,96449.34
2022-08-02T11:23:45.175Z,96457.00
2022-08-02T11:24:47.647Z,96442.28
2022-08-02T11:26:10.805Z,96449.97
2022-08-02T11:27:22.138Z,96443.13
2022-08-02T11:28:25.714Z,96444.84
2022-08-02T11:29:45.553Z,96447.31
2022-08-02T11:30:56.777Z,96444.84
2022-08-02T11:31:59.031Z,96443.66
2022-08-02T11:33:01.299Z,96450.59
2022-08-02T11:34:09.266Z,96446.41
2022-08-02T11:35:12.097Z,96443.91
2022-08-02T11:36:15.239Z,96444.31
2022-08-02T11:37:43.440Z,96445.50
2022-08-02T11:38:45.768Z,96445.44
2022-08-02T11:39:51.840Z,96442.16
2022-08-02T11:40:57.248Z,96443.03
2022-08-02T11:42:00.898Z,96445.44
2022-08-02T11:43:02.476Z,96435.72
2022-08-02T11:44:04.452Z,96445.31
2022-08-02T11:45:08.766Z,96438.38
2022-08-02T11:46:14.844Z,96442.97
2022-08-02T11:47:16.606Z,96434.94
2022-08-02T11:48:35.469Z,96445.13
2022-08-02T11:49:37.564Z,96442.38
2022-08-02T11:50:39.286Z,96438.56
2022-08-02T11:51:54.588Z,96434.06
2022-08-02T11:52:56.326Z,96432.94
2022-08-02T11:53:58.009Z,96426.91
2022-08-02T11:54:59.787Z,96423.38
2022-08-02T11:56:01.375Z,96432.50
2022-08-02T11:57:15.612Z,96432.38
2022-08-02T11:58:20.813Z,96428.50
2022-08-02T11:59:22.562Z,96439.25
2022-08-02T12:00:26.967Z,96433.25
2022-08-02T12:01:36.753Z,96425.66
2022-08-02T12:02:48.506Z,96427.47
2022-08-02T12:03:50.416Z,96427.97
2022-08-02T12:05:10.170Z,96429.81
2022-08-02T12:06:16.732Z,96429.06
2022-08-02T12:07:18.935Z,96430.44
2022-08-02T12:08:37.806Z,96428.34
2022-08-02T12:09:41.410Z,96420.56
2022-08-02T12:10:49.844Z,96409.28
2022-08-02T12:11:51.697Z,96416.53
2022-08-02T12:12:58.994Z,96412.16
2022-08-02T12:14:01.116Z,96419.38
2022-08-02T12:15:02.816Z,96411.75
2022-08-02T12:16:31.132Z,96418.63
2022-08-02T12:17:51.194Z,96412.63
2022-08-02T12:19:11.709Z,96419.50
2022-08-02T12:20:17.373Z,96407.06
2022-08-02T12:21:26.481Z,96419.13
2022-08-02T12:22:28.362Z,96426.66
2022-08-02T12:23:30.500Z,96410.97
2022-08-02T12:24:32.126Z,96413.94
2022-08-02T12:25:35.553Z,96414.25
2022-08-02T12:26:45.292Z,96415.94
2022-08-02T12:27:46.921Z,96404.88
2022-08-02T12:28:57.479Z,96415.28
2022-08-02T12:30:06.785Z,96416.53
2022-08-02T12:31:10.757Z,96407.00
2022-08-02T12:32:24.200Z,96395.63
2022-08-02T12:33:44.083Z,96409.66
2022-08-02T12:35:08.387Z,96394.56
2022-08-02T12:36:20.252Z,96411.00
2022-08-02T12:37:25.839Z,96408.53
2022-08-02T12:38:27.462Z,96407.75
2022-08-02T12:39:39.468Z,96409.50
2022-08-02T12:40:41.548Z,96399.25
2022-08-02T12:41:55.018Z,96399.66
2022-08-02T12:42:59.336Z,96406.22
2022-08-02T12:44:01.045Z,96408.88
2022-08-02T12:45:02.640Z,96391.50
2022-08-02T12:46:04.268Z,96399.91
2022-08-02T12:47:12.103Z,96400.88
2022-08-02T12:48:13.990Z,96399.75
2022-08-02T12:49:19.828Z,96398.13
2022-08-02T12:50:24.836Z,96395.75
2022-08-02T12:51:56.512Z,96395.44
2022-08-02T12:53:16.130Z,96393.66
2022-08-02T12:54:27.421Z,96400.69
2022-08-02T12:56:02.298Z,96392.69
2022-08-02T12:56:55.040Z,96398.78
2022-08-02T12:58:00.264Z,96393.34